Time;durP1;ratioP1;P1;durP2;ratioP2;P2;SDS_P1;SDS_P2;PMS_P1;PMS_P2;Temp;Humidity;BMP_temperature;BMP_pressure;BME280_temperature;BME280_humidity;BME280_pressure;Samples;Min_cycle;Max_cycle;Signal;HPM_P1;HPM_P2
2022/12/22 03:27:23;;;;;;;16.05;11.93;;;;;;;8.23;100.00;100215.44;5054997;28;20089;-81
2022/12/22 03:29:49;;;;;;;18.85;12.27;;;;;;;8.22;100.00;100205.25;5055210;28;20395;-81
2022/12/22 03:32:14;;;;;;;21.40;12.45;;;;;;;8.18;100.00;100204.63;5054972;28;20029;-81
2022/12/22 03:34:39;;;;;;;17.55;11.95;;;;;;;8.12;100.00;100202.44;5055192;28;20128;-80
2022/12/22 03:37:05;;;;;;;26.30;11.23;;;;;;;8.12;100.00;100205.00;5054670;28;20114;-82
2022/12/22 03:39:30;;;;;;;76.72;15.13;;;;;;;8.12;100.00;100205.00;5054555;28;20082;-81
2022/12/22 03:47:23;;;;;;;23.13;10.43;;;;;;;8.03;100.00;100192.72;5055070;28;20508;-82
2022/12/22 03:49:48;;;;;;;32.22;11.65;;;;;;;7.99;100.00;100186.13;5054625;28;20052;-81
2022/12/22 03:52:14;;;;;;;34.42;10.40;;;;;;;7.95;100.00;100192.34;5036934;28;20116;-82
2022/12/22 03:54:39;;;;;;;59.17;11.02;;;;;;;7.79;100.00;100161.66;5054696;28;20104;-81
2022/12/22 03:57:04;;;;;;;25.52;9.82;;;;;;;7.68;100.00;100149.47;5054251;28;20361;-82
2022/12/22 03:59:30;;;;;;;12.32;9.05;;;;;;;7.91;100.00;100183.19;5054420;28;20021;-82
2022/12/22 04:01:55;;;;;;;20.08;8.77;;;;;;;7.63;100.00;100138.63;5054633;28;20025;-82
2022/12/22 04:04:23;;;;;;;11.50;8.68;;;;;;;7.87;100.00;100176.63;5054375;28;20044;-81
2022/12/22 04:06:48;;;;;;;27.77;9.65;;;;;;;7.73;100.00;100147.44;5053721;28;20057;-81
2022/12/22 04:09:14;;;;;;;11.13;8.07;;;;;;;7.86;100.00;100156.94;5065852;23;20531;-82
2022/12/22 04:14:24;;;;;;;15.63;10.93;;;;;;;7.90;100.00;100168.69;5074436;28;20128;-81
2022/12/22 04:16:49;;;;;;;18.77;10.82;;;;;;;7.88;100.00;100165.41;5073950;28;20108;-81
2022/12/22 04:19:15;;;;;;;15.80;10.63;;;;;;;7.88;100.00;100162.84;5074030;28;20075;-81
2022/12/22 04:21:40;;;;;;;16.40;11.57;;;;;;;7.72;100.00;100132.09;5074038;28;20033;-82
2022/12/22 04:24:06;;;;;;;18.77;11.77;;;;;;;7.86;100.00;100164.66;5073617;28;20036;-82
2022/12/22 04:27:27;;;;;;;19.13;13.13;;;;;;;7.89;100.00;100169.63;5817559;22;20033;-82
2022/12/22 04:29:55;;;;;;;23.17;13.32;;;;;;;6.73;100.00;99986.72;5073897;28;20025;-82
2022/12/22 04:33:11;;;;;;;18.45;12.63;;;;;;;7.88;100.00;100178.25;5073800;28;20051;-82
2022/12/22 04:39:08;;;;;;;19.75;13.75;;;;;;;6.75;100.00;100003.66;5073711;28;20064;-81
2022/12/22 04:41:36;;;;;;;21.10;13.68;;;;;;;6.67;100.00;99994.75;5073701;28;20492;-81
2022/12/22 04:44:39;;;;;;;21.50;14.30;;;;;;;7.93;100.00;100189.88;5073596;28;20375;-82
2022/12/22 04:47:04;;;;;;;21.08;13.57;;;;;;;7.84;100.00;100171.63;5073826;28;20074;-80
2022/12/22 04:52:58;;;;;;;20.88;12.95;;;;;;;6.79;100.00;100000.00;5073565;28;20044;-82
2022/12/22 04:56:21;;;;;;;22.13;12.95;;;;;;;7.88;100.00;100178.25;5073490;28;20123;-82
2022/12/22 04:58:46;;;;;;;24.10;13.02;;;;;;;7.31;100.00;100099.53;5031097;28;20037;-81
2022/12/22 05:01:15;;;;;;;23.70;12.90;;;;;;;6.85;100.00;100038.09;5031418;28;20143;-82
2022/12/22 05:03:58;;;;;;;23.25;13.57;;;;;;;6.73;100.00;100004.66;5031026;28;20033;-82
2022/12/22 05:06:24;;;;;;;20.42;13.55;;;;;;;7.90;100.00;100191.84;5031337;28;20060;-82
2022/12/22 05:08:49;;;;;;;22.05;12.82;;;;;;;7.91;100.00;100186.59;5031375;28;20469;-82
2022/12/22 05:11:14;;;;;;;28.17;13.57;;;;;;;7.92;100.00;100179.72;5031335;28;20040;-80
2022/12/22 05:13:40;;;;;;;23.10;13.68;;;;;;;7.96;100.00;100191.44;5030928;28;20535;-82
2022/12/22 05:16:08;;;;;;;35.92;13.27;;;;;;;7.97;100.00;100187.97;4998223;28;20425;-82
2022/12/22 05:18:36;;;;;;;22.70;13.40;;;;;;;7.98;100.00;100185.31;5030731;28;20510;-82
2022/12/22 05:21:04;;;;;;;28.00;13.98;;;;;;;7.99;100.00;100191.28;5030977;28;20068;-82
2022/12/22 05:23:30;;;;;;;30.17;14.00;;;;;;;7.91;100.00;100171.16;5031188;28;20493;-82
2022/12/22 05:25:55;;;;;;;25.73;13.02;;;;;;;8.03;100.00;100195.28;5031164;28;20041;-82
2022/12/22 05:28:20;;;;;;;32.90;13.82;;;;;;;8.02;100.00;100204.75;5031782;28;20054;-80
2022/12/22 05:30:46;;;;;;;25.15;14.15;;;;;;;7.97;100.00;100196.50;5073045;28;20027;-82
2022/12/22 05:33:11;;;;;;;31.35;14.75;;;;;;;7.88;100.00;100173.94;5073185;28;20028;-82
2022/12/22 05:35:36;;;;;;;31.70;14.65;;;;;;;8.05;100.00;100204.53;5072955;28;20058;-82
2022/12/22 05:38:02;;;;;;;27.98;14.52;;;;;;;8.06;100.00;100200.22;5054309;28;20040;-82
2022/12/22 05:40:27;;;;;;;25.38;14.00;;;;;;;7.99;100.00;100186.94;5073011;28;20464;-82
2022/12/22 05:42:55;;;;;;;30.17;14.57;;;;;;;8.08;100.00;100213.00;5072747;28;20033;-81
2022/12/22 05:45:21;;;;;;;27.48;14.30;;;;;;;8.08;100.00;100208.69;5072780;28;20025;-82
2022/12/22 05:47:49;;;;;;;24.80;14.43;;;;;;;8.10;100.00;100204.28;5055126;28;20040;-82
2022/12/22 05:50:18;;;;;;;35.08;15.15;;;;;;;8.02;100.00;100204.75;5073240;28;20025;-82
2022/12/22 05:52:43;;;;;;;39.55;15.73;;;;;;;8.04;100.00;100202.06;5073001;28;20047;-81
2022/12/22 05:55:10;;;;;;;31.35;15.40;;;;;;;8.15;100.00;100224.53;5072908;28;20029;-82
2022/12/22 05:57:35;;;;;;;31.63;16.20;;;;;;;8.11;100.00;100226.50;5880215;22;20048;-82
2022/12/22 06:00:01;;;;;;;29.85;15.65;;;;;;;8.16;100.00;100241.63;5112997;28;20501;-82
2022/12/22 06:02:27;;;;;;;30.73;16.60;;;;;;;8.10;100.00;100231.75;5113424;28;20032;-81
2022/12/22 06:04:52;;;;;;;26.48;15.93;;;;;;;8.17;100.00;100246.69;5113280;28;20479;-82
2022/12/22 06:07:17;;;;;;;24.55;15.70;;;;;;;8.11;100.00;100236.78;5113227;28;20035;-82
2022/12/22 06:09:43;;;;;;;28.48;16.10;;;;;;;8.10;100.00;100242.84;5113093;28;20102;-82
2022/12/22 06:12:08;;;;;;;27.83;15.43;;;;;;;8.22;100.00;100259.25;5113247;28;20039;-82
2022/12/22 06:26:31;;;;;;;26.42;16.30;;;;;;;8.25;100.00;100280.47;5623673;22;20052;-83
2022/12/22 06:28:56;;;;;;;27.92;16.10;;;;;;;8.23;100.00;100272.03;5112838;28;20032;-82
2022/12/22 06:31:22;;;;;;;29.50;16.25;;;;;;;7.84;100.00;100223.06;5115173;28;20030;-83
2022/12/22 06:33:47;;;;;;;29.13;16.25;;;;;;;8.23;100.00;100279.75;5116897;28;20031;-82
2022/12/22 06:36:12;;;;;;;30.08;16.67;;;;;;;8.23;100.00;100290.03;5116899;28;20459;-82
2022/12/22 06:38:38;;;;;;;34.20;18.00;;;;;;;8.24;100.00;100296.00;5116883;28;20040;-83
2022/12/22 06:41:03;;;;;;;33.40;18.20;;;;;;;8.24;100.00;100307.09;5116867;28;20584;-82
2022/12/22 06:43:28;;;;;;;38.55;19.73;;;;;;;8.25;100.00;100308.75;5116566;28;20031;-82
2022/12/22 06:45:54;;;;;;;44.60;22.10;;;;;;;8.26;100.00;100314.75;5116522;28;20035;-82
2022/12/22 06:48:19;;;;;;;39.95;20.58;;;;;;;8.26;100.00;100312.19;5116789;28;20490;-82
2022/12/22 06:50:45;;;;;;;42.15;20.75;;;;;;;8.23;100.00;100307.19;5116545;28;20034;-82
2022/12/22 06:53:10;;;;;;;41.70;21.13;;;;;;;8.23;100.00;100313.19;5116643;28;20107;-83
2022/12/22 06:55:36;;;;;;;44.88;21.10;;;;;;;8.02;100.00;100286.19;5116551;28;20024;-82
2022/12/22 06:58:01;;;;;;;46.40;22.45;;;;;;;8.19;100.00;100332.31;5116393;28;20028;-81
2022/12/22 07:18:53;;;;;;;55.05;24.42;;;;;;;8.06;100.00;100364.78;5117171;28;20089;-83
2022/12/22 07:25:27;;;;;;;54.10;24.85;;;;;;;7.87;100.00;100356.56;5116459;28;20058;-81
2022/12/22 07:34:36;;;;;;;60.38;27.08;;;;;;;7.63;100.00;100377.63;5121931;22;20112;-82
2022/12/22 07:37:29;;;;;;;61.80;27.65;;;;;;;7.67;100.00;100373.13;5115777;28;20027;-82
2022/12/22 07:40:45;;;;;;;63.83;27.52;;;;;;;7.73;100.00;100381.31;5115954;28;20046;-82
2022/12/22 07:43:10;;;;;;;61.70;26.23;;;;;;;7.39;100.00;100327.66;5115668;28;20028;-79
2022/12/22 07:56:02;;;;;;;61.17;25.05;;;;;;;7.48;100.00;100357.97;5095342;28;20040;-81
2022/12/22 07:58:36;;;;;;;60.97;25.65;;;;;;;7.73;100.00;100407.00;5094740;28;20056;-80
2022/12/22 08:01:08;;;;;;;62.70;24.92;;;;;;;7.49;100.00;100369.88;5093641;28;20521;-80
2022/12/22 08:04:26;;;;;;;57.35;24.88;;;;;;;7.95;100.00;100454.59;5115207;28;20020;-79
2022/12/22 08:06:59;;;;;;;56.38;23.25;;;;;;;6.84;100.00;100285.41;5115246;28;20126;-81
2022/12/22 08:09:25;;;;;;;52.40;22.63;;;;;;;7.93;100.00;100462.41;5079214;28;20425;-81
2022/12/22 08:11:50;;;;;;;53.05;23.00;;;;;;;7.97;100.00;100473.38;5115100;28;20024;-80
2022/12/22 08:14:15;;;;;;;51.60;22.55;;;;;;;7.97;100.00;100479.34;5114683;28;20027;-79
2022/12/22 08:16:41;;;;;;;50.72;23.23;;;;;;;7.98;100.00;100470.69;5095716;28;20035;-82
2022/12/22 08:19:06;;;;;;;43.00;21.30;;;;;;;7.96;100.00;100475.09;5114999;28;20027;-81
2022/12/22 08:21:31;;;;;;;41.70;19.73;;;;;;;7.97;100.00;100473.38;5115007;28;20070;-81
2022/12/22 08:23:57;;;;;;;40.28;20.73;;;;;;;7.75;100.00;100442.91;5114621;28;20032;-81
2022/12/22 08:26:38;;;;;;;39.80;18.13;;;;;;;7.91;100.00;100466.81;5096553;28;20024;-82
2022/12/22 08:29:10;;;;;;;40.85;19.48;;;;;;;7.82;100.00;100469.09;5096016;28;20470;-80
2022/12/22 08:31:37;;;;;;;39.28;19.42;;;;;;;7.78;100.00;100475.34;5114528;28;20083;-78
2022/12/22 08:34:06;;;;;;;41.47;20.38;;;;;;;7.83;100.00;100486.16;5114908;28;20035;-77
2022/12/22 08:36:36;;;;;;;44.90;20.20;;;;;;;7.82;100.00;100498.19;5094007;28;20085;-78
2022/12/22 08:39:01;;;;;;;43.47;20.92;;;;;;;7.82;100.00;100507.66;5058874;28;20402;-81
2022/12/22 08:44:13;;;;;;;47.72;21.60;;;;;;;7.76;100.00;100527.63;5094319;28;20074;-82
2022/12/22 08:46:38;;;;;;;44.33;22.45;;;;;;;7.71;100.00;100528.81;5094512;28;20433;-82
2022/12/22 08:49:03;;;;;;;47.30;21.75;;;;;;;7.73;100.00;100543.22;5092542;28;20027;-78
2022/12/22 08:51:29;;;;;;;46.05;21.92;;;;;;;7.73;100.00;100547.53;5094147;28;20020;-82
2022/12/22 08:53:54;;;;;;;44.90;21.23;;;;;;;7.52;100.00;100508.44;5093533;28;20024;-82
2022/12/22 08:56:19;;;;;;;42.97;20.75;;;;;;;7.69;100.00;100552.03;5093839;28;20027;-78
2022/12/22 08:58:45;;;;;;;40.70;19.13;;;;;;;7.59;100.00;100544.91;5093564;28;20042;-81
2022/12/22 09:01:19;;;;;;;45.33;20.58;;;;;;;7.65;100.00;100560.81;5093912;28;20107;-82
2022/12/22 09:03:51;;;;;;;45.47;21.65;;;;;;;7.62;100.00;100565.28;5093876;28;20039;-82
2022/12/22 09:06:18;;;;;;;44.20;20.13;;;;;;;7.57;100.00;100562.13;5093614;28;20030;-81
2022/12/22 09:08:44;;;;;;;42.85;21.08;;;;;;;7.42;100.00;100562.06;5075616;28;20428;-81
2022/12/22 09:11:09;;;;;;;43.75;21.05;;;;;;;7.43;100.00;100570.59;5093761;28;20024;-82
2022/12/22 09:13:34;;;;;;;42.08;20.58;;;;;;;7.25;100.00;100556.19;5093447;28;20024;-84
2022/12/22 09:16:07;;;;;;;41.95;20.85;;;;;;;7.28;100.00;100577.41;5093554;28;20024;-83
2022/12/22 09:18:33;;;;;;;44.13;20.55;;;;;;;7.21;100.00;100583.78;5093430;28;20379;-83
2022/12/22 09:20:58;;;;;;;46.53;22.70;;;;;;;7.16;100.00;100578.88;5093664;28;20028;-82
2022/12/22 09:23:24;;;;;;;47.50;23.33;;;;;;;7.12;100.00;100579.94;5093643;28;20391;-82
2022/12/22 09:25:49;;;;;;;49.03;22.10;;;;;;;6.95;100.00;100553.50;5093967;28;20581;-81
2022/12/22 09:28:15;;;;;;;46.63;23.00;;;;;;;6.85;100.00;100546.28;5093615;28;20101;-82
2022/12/22 09:30:40;;;;;;;50.88;23.88;;;;;;;7.00;100.00;100559.22;5093746;28;20072;-81
2022/12/22 09:33:06;;;;;;;55.03;24.65;;;;;;;7.23;100.00;100604.22;5087422;28;20520;-83
2022/12/22 09:35:31;;;;;;;57.00;24.55;;;;;;;7.00;100.00;100566.94;5105444;28;20055;-83
2022/12/22 09:37:56;;;;;;;53.40;24.10;;;;;;;7.19;100.00;100604.41;5113613;28;20036;-81
2022/12/22 09:40:23;;;;;;;50.22;23.45;;;;;;;7.07;100.00;100584.47;5113722;28;20080;-81
2022/12/22 09:42:49;;;;;;;59.55;25.58;;;;;;;7.18;100.00;100594.22;5113529;28;20023;-82
2022/12/22 09:45:21;;;;;;;56.53;26.13;;;;;;;7.19;100.00;100606.97;5158296;22;20052;-81
2022/12/22 09:47:52;;;;;;;54.88;24.08;;;;;;;7.17;100.00;100607.94;5054626;28;20035;-80
2022/12/22 09:50:22;;;;;;;56.13;24.10;;;;;;;7.08;100.00;100595.56;5073246;28;20025;-81
2022/12/22 09:53:00;;;;;;;55.00;23.80;;;;;;;7.11;100.00;100613.41;5073151;28;20025;-85
2022/12/22 09:55:31;;;;;;;53.85;23.55;;;;;;;7.10;100.00;100614.31;5072843;28;20047;-83
2022/12/22 09:57:56;;;;;;;53.83;23.33;;;;;;;7.11;100.00;100619.38;5073201;28;20024;-83
2022/12/22 10:00:27;;;;;;;57.75;25.15;;;;;;;7.21;100.00;100624.88;5074282;28;20025;-81
2022/12/22 10:03:14;;;;;;;57.47;24.98;;;;;;;7.25;100.00;100628.91;5075786;28;20024;-80
2022/12/22 10:05:56;;;;;;;58.38;26.17;;;;;;;7.20;100.00;100605.22;5077580;28;20029;-81
2022/12/22 10:08:28;;;;;;;58.03;24.90;;;;;;;7.39;100.00;100620.50;5079823;28;20056;-81
2022/12/22 10:10:55;;;;;;;58.78;25.55;;;;;;;7.41;100.00;100628.94;5077060;28;20028;-81
2022/12/22 10:13:20;;;;;;;56.20;25.40;;;;;;;7.44;100.00;100618.50;5076625;28;20020;-81
2022/12/22 10:32:11;;;;;;;42.53;22.38;;;;;;;7.93;100.00;100644.94;5352958;22;20055;-81
2022/12/22 10:42:07;;;;;;;34.28;18.85;;;;;;;8.16;100.00;100650.56;5694041;22;20264;-80
2022/12/22 10:44:36;;;;;;;30.77;16.73;;;;;;;7.60;100.00;100579.97;4990897;28;20062;-81
2022/12/22 11:01:35;;;;;;;31.48;17.05;;;;;;;7.57;100.00;100646.94;5437216;23;20057;-82
2022/12/22 11:04:24;;;;;;;26.92;13.57;;;;;;;7.64;100.00;100659.38;5055466;28;20027;-82
2022/12/22 11:12:38;;;;;;;31.30;14.57;;;;;;;7.51;100.00;100681.50;5065679;28;20115;-80
2022/12/22 11:15:16;;;;;;;28.90;14.48;;;;;;;7.47;100.00;100680.84;5055534;28;20030;-82
2022/12/22 11:18:40;;;;;;;27.70;14.85;;;;;;;6.39;100.00;100511.03;5054897;28;20025;-81
2022/12/22 11:33:23;;;;;;;27.85;14.30;;;;;;;7.79;100.00;100692.91;5338188;22;20458;-84
2022/12/22 11:36:25;;;;;;;24.45;13.65;;;;;;;7.62;100.00;100684.34;5055566;28;20033;-82
2022/12/22 11:39:05;;;;;;;26.65;13.55;;;;;;;7.56;100.00;100694.94;5055148;28;20075;-84
2022/12/22 11:41:44;;;;;;;29.05;14.45;;;;;;;7.56;100.00;100694.94;5055187;28;20025;-82
2022/12/22 11:44:38;;;;;;;27.60;14.23;;;;;;;7.62;100.00;100698.94;5055282;28;20066;-83
2022/12/22 11:47:33;;;;;;;30.70;16.15;;;;;;;7.50;100.00;100664.44;5055133;28;20116;-82
2022/12/22 11:50:11;;;;;;;33.45;17.02;;;;;;;7.75;100.00;100700.75;5054997;28;20036;-81
2022/12/22 11:53:04;;;;;;;34.67;19.75;;;;;;;7.85;100.00;100705.41;5054970;28;20028;-82
2022/12/22 11:55:34;;;;;;;35.80;21.27;;;;;;;7.79;100.00;100682.63;5055081;28;20024;-82
2022/12/22 11:58:25;;;;;;;40.10;22.48;;;;;;;7.95;100.00;100697.13;5036732;28;20041;-79
2022/12/22 12:01:39;;;;;;;37.78;22.67;;;;;;;8.04;100.00;100701.75;5054700;28;20025;-82
2022/12/22 12:04:38;;;;;;;38.17;23.15;;;;;;;8.15;100.00;100701.19;4954380;29;20114;-83
2022/12/22 12:07:24;;;;;;;43.35;25.38;;;;;;;8.17;100.00;100696.81;4954319;28;20506;-82
2022/12/22 12:10:11;;;;;;;44.08;25.75;;;;;;;8.19;100.00;100691.56;4954430;29;20077;-82
2022/12/22 12:12:46;;;;;;;42.05;25.48;;;;;;;8.17;100.00;100691.66;4954651;28;20364;-84
2022/12/22 12:15:45;;;;;;;39.33;24.23;;;;;;;8.06;100.00;100670.81;4954561;28;20151;-83
2022/12/22 12:18:28;;;;;;;39.15;23.92;;;;;;;8.19;100.00;100676.97;4954260;29;20035;-84
2022/12/22 12:21:26;;;;;;;38.47;23.05;;;;;;;8.23;100.00;100677.59;4953765;29;20053;-84
2022/12/22 12:24:18;;;;;;;41.22;24.35;;;;;;;8.30;100.00;100676.38;4954368;28;20045;-83
2022/12/22 12:27:10;;;;;;;37.75;23.00;;;;;;;8.40;100.00;100659.53;4953325;28;20047;-83
2022/12/22 12:30:01;;;;;;;33.00;20.77;;;;;;;8.44;100.00;100657.59;4952952;28;20031;-81
2022/12/22 12:32:49;;;;;;;31.80;19.30;;;;;;;8.39;100.00;100654.47;4954097;29;20047;-83
2022/12/22 12:35:33;;;;;;;33.42;19.75;;;;;;;8.32;100.00;100649.63;4972249;28;20061;-83
2022/12/22 12:38:15;;;;;;;33.35;19.40;;;;;;;8.30;100.00;100645.50;4973054;28;20182;-79
2022/12/22 12:40:56;;;;;;;31.02;18.58;;;;;;;8.26;100.00;100633.72;5009794;28;20090;-81
2022/12/22 12:43:22;;;;;;;28.00;17.42;;;;;;;8.48;100.00;100652.22;5053930;28;20021;-82
2022/12/22 12:45:49;;;;;;;27.35;16.45;;;;;;;8.56;100.00;100652.59;5053598;28;20029;-84
2022/12/22 12:48:20;;;;;;;26.05;16.15;;;;;;;8.58;100.00;100647.34;5054223;28;20397;-83
2022/12/22 12:50:46;;;;;;;;;;;;;;;8.58;100.00;100649.94;5053994;28;20029;-84
2022/12/22 12:53:11;;;;;;;26.88;16.52;;;;;;;8.54;100.00;100653.59;5053575;28;19995;-83
2022/12/22 12:55:39;;;;;;;25.77;16.60;;;;;;;8.47;100.00;100650.56;5053499;28;20036;-83
2022/12/22 12:58:09;;;;;;;26.33;17.25;;;;;;;8.32;100.00;100633.38;5053351;28;20388;-82
2022/12/22 13:00:35;;;;;;;28.23;17.30;;;;;;;8.41;100.00;100653.47;5052844;28;20047;-82
2022/12/22 13:03:06;;;;;;;32.90;19.52;;;;;;;8.40;100.00;100651.81;5053374;28;20476;-84
2022/12/22 14:23:33;;;;;;;20.25;12.85;;;;;;;8.25;100.00;100593.47;5938870;22;20075;-80
2022/12/22 14:26:01;;;;;;;20.40;12.45;;;;;;;8.22;100.00;100598.78;5036040;28;20038;-78
2022/12/22 14:28:48;;;;;;;20.08;12.98;;;;;;;8.18;100.00;100594.75;5038716;28;20067;-80
2022/12/22 14:31:14;;;;;;;21.75;12.70;;;;;;;8.15;100.00;100590.56;5039056;28;20036;-80
2022/12/22 14:33:51;;;;;;;20.40;12.30;;;;;;;8.13;100.00;100579.56;5039567;28;20026;-81
2022/12/22 14:42:19;;;;;;;21.00;13.68;;;;;;;6.81;100.00;100377.97;5019495;28;20045;-80
2022/12/22 14:45:13;;;;;;;20.90;12.02;;;;;;;8.01;100.00;100564.81;5018574;28;20112;-79
2022/12/22 14:47:39;;;;;;;19.38;12.50;;;;;;;6.75;100.00;100368.03;5019397;28;20101;-79
2022/12/22 14:50:18;;;;;;;19.67;13.45;;;;;;;7.96;100.00;100559.09;5019328;28;20157;-79
2022/12/22 14:53:31;;;;;;;18.02;12.75;;;;;;;7.51;100.00;100486.25;5015182;28;20373;-81
2022/12/22 15:26:11;;;;;;;18.15;12.88;;;;;;;6.62;100.00;100379.88;5488611;23;20115;-80
2022/12/22 15:33:00;;;;;;;18.92;13.05;;;;;;;7.54;100.00;100522.03;4879881;29;20367;-84
2022/12/22 15:38:13;;;;;;;19.15;12.65;;;;;;;7.46;100.00;100506.19;5086889;23;20106;-84
2022/12/22 15:40:39;;;;;;;20.23;12.85;;;;;;;7.52;100.00;100512.75;4956884;29;20034;-84
2022/12/22 15:43:04;;;;;;;20.10;13.90;;;;;;;7.51;100.00;100517.06;4939456;29;20031;-87
2022/12/22 15:45:30;;;;;;;19.77;12.93;;;;;;;7.51;100.00;100511.94;4939748;29;20031;-88
2022/12/22 15:47:56;;;;;;;20.13;13.57;;;;;;;7.53;100.00;100510.09;4957049;29;20027;-87
2022/12/22 15:50:30;;;;;;;21.10;14.35;;;;;;;7.53;100.00;100511.84;4956821;29;20035;-86
2022/12/22 15:52:57;;;;;;;24.25;13.88;;;;;;;7.55;100.00;100513.41;4956692;29;20102;-86
2022/12/22 15:55:23;;;;;;;24.17;14.27;;;;;;;7.48;100.00;100491.56;4956426;28;20104;-85
2022/12/22 16:17:09;;;;;;;21.08;14.43;;;;;;;7.49;100.00;100477.78;5359205;23;20070;-88
2022/12/22 16:27:48;;;;;;;19.70;13.90;;;;;;;6.43;100.00;100274.88;4918040;29;20083;-79
2022/12/22 16:30:48;;;;;;;19.25;13.75;;;;;;;7.53;100.00;100438.16;4917461;29;20044;-83
2022/12/22 16:37:21;;;;;;;18.52;14.02;;;;;;;7.56;100.00;100429.44;4935476;29;20123;-86
2022/12/22 16:39:52;;;;;;;21.92;15.25;;;;;;;6.74;100.00;100293.69;4936291;29;20047;-84
2022/12/22 16:44:53;;;;;;;20.30;15.57;;;;;;;7.29;100.00;100365.88;3033309;26;20058;-86
2022/12/22 16:47:23;;;;;;;18.73;14.18;;;;;;;7.64;100.00;100414.41;4936254;29;20028;-86
2022/12/22 16:49:49;;;;;;;18.35;15.02;;;;;;;7.63;100.00;100408.44;4919318;29;20458;-85
2022/12/22 16:52:25;;;;;;;21.55;15.57;;;;;;;7.62;100.00;100406.81;4937022;29;20053;-86
2022/12/22 16:54:50;;;;;;;21.65;15.43;;;;;;;7.43;100.00;100370.22;4936670;29;20114;-86
2022/12/22 16:57:15;;;;;;;19.10;14.85;;;;;;;7.65;100.00;100398.09;4936466;29;20042;-86
2022/12/22 16:59:41;;;;;;;18.85;13.90;;;;;;;7.44;100.00;100366.75;4936576;29;20117;-87
2022/12/22 17:02:35;;;;;;;21.88;14.88;;;;;;;7.69;100.00;100399.56;4936729;29;20111;-86
2022/12/22 17:05:01;;;;;;;18.63;13.82;;;;;;;7.72;100.00;100389.94;4860345;29;20128;-87
2022/12/22 17:07:31;;;;;;;17.85;13.48;;;;;;;7.73;100.00;100385.63;4859783;29;20044;-87
2022/12/22 17:10:00;;;;;;;18.50;14.20;;;;;;;7.76;100.00;100391.41;4859610;29;20038;-90
2022/12/22 17:12:28;;;;;;;17.98;13.85;;;;;;;7.78;100.00;100395.66;4859569;29;20142;-89
2022/12/22 17:14:55;;;;;;;19.42;13.70;;;;;;;7.63;100.00;100357.06;4858868;29;20573;-88
2022/12/22 17:17:24;;;;;;;23.60;15.80;;;;;;;7.67;100.00;100362.84;4859075;29;20482;-84
2022/12/22 17:19:50;;;;;;;24.98;16.15;;;;;;;7.87;100.00;100385.66;4859289;29;20038;-85
2022/12/22 17:22:30;;;;;;;20.52;14.35;;;;;;;7.77;100.00;100356.28;4859870;29;20077;-89
2022/12/22 17:24:59;;;;;;;18.63;13.75;;;;;;;7.92;100.00;100367.38;4860006;29;20034;-89
2022/12/22 17:27:32;;;;;;;20.15;13.68;;;;;;;7.85;100.00;100350.66;4859110;29;20433;-89
2022/12/22 17:30:02;;;;;;;21.45;14.38;;;;;;;7.96;100.00;100367.13;4859072;29;20584;-90
2022/12/22 17:32:27;;;;;;;21.30;14.38;;;;;;;7.97;100.00;100363.63;4859451;29;20078;-87
2022/12/22 17:34:52;;;;;;;21.73;13.80;;;;;;;7.98;100.00;100347.28;4859178;29;20045;-89
2022/12/22 17:37:21;;;;;;;22.85;15.25;;;;;;;8.01;100.00;100348.84;5132780;23;20411;-90
2022/12/22 17:39:50;;;;;;;23.92;15.25;;;;;;;8.05;100.00;100351.13;4954963;28;20046;-89
2022/12/22 17:42:21;;;;;;;22.45;14.35;;;;;;;8.08;100.00;100347.56;4955519;29;20028;-87
2022/12/22 17:44:46;;;;;;;22.30;14.35;;;;;;;8.10;100.00;100337.19;4954856;29;20019;-89
2022/12/22 17:47:14;;;;;;;24.00;14.30;;;;;;;8.14;100.00;100336.06;4954991;29;20398;-88
2022/12/22 17:49:40;;;;;;;24.33;15.45;;;;;;;8.14;100.00;100331.72;4954858;29;20050;-88
2022/12/22 17:52:16;;;;;;;25.52;15.43;;;;;;;8.17;100.00;100330.75;4955132;28;20046;-87
2022/12/22 17:54:41;;;;;;;25.73;14.68;;;;;;;8.10;100.00;100309.72;4955161;29;20048;-85
2022/12/22 17:57:14;;;;;;;28.15;15.70;;;;;;;8.15;100.00;100306.84;4955378;28;20459;-89
2022/12/22 17:59:41;;;;;;;31.25;16.08;;;;;;;8.23;100.00;100320.88;4954798;29;20114;-90
2022/12/22 18:02:16;;;;;;;28.73;17.17;;;;;;;8.27;100.00;100319.81;4955268;29;20431;-91
2022/12/22 18:04:41;;;;;;;30.45;16.50;;;;;;;8.29;100.00;100320.53;4954932;29;20035;-91
2022/12/22 18:07:07;;;;;;;27.23;14.27;;;;;;;8.19;100.00;100295.47;4955546;29;20094;-90
2022/12/22 18:09:32;;;;;;;28.77;14.18;;;;;;;8.21;100.00;100299.59;4955452;28;20031;-90
2022/12/22 18:11:58;;;;;;;32.72;14.43;;;;;;;8.20;100.00;100295.38;4955767;28;20031;-90
2022/12/22 18:14:23;;;;;;;24.27;13.13;;;;;;;8.24;100.00;100291.69;4956534;29;20027;-87
2022/12/22 18:16:48;;;;;;;26.00;13.30;;;;;;;8.42;100.00;100307.75;4957194;29;20027;-87
2022/12/22 18:19:14;;;;;;;25.92;13.35;;;;;;;8.43;100.00;100306.00;4955458;29;20050;-87
2022/12/22 18:21:39;;;;;;;30.92;13.35;;;;;;;8.31;100.00;100292.94;4956217;28;20023;-91
2022/12/22 18:24:14;;;;;;;24.38;12.15;;;;;;;8.47;100.00;100299.75;4958370;29;20127;-92
2022/12/22 18:26:39;;;;;;;28.30;13.20;;;;;;;8.48;100.00;100299.66;4957709;28;20023;-91
2022/12/22 18:29:05;;;;;;;29.88;14.05;;;;;;;8.37;100.00;100278.94;4959899;29;20059;-86
2022/12/22 18:31:30;;;;;;;31.67;12.80;;;;;;;8.53;100.00;100291.63;4962615;28;20023;-83
2022/12/22 18:33:55;;;;;;;30.75;14.38;;;;;;;8.56;100.00;100297.44;4960645;29;20027;-74
2022/12/22 18:36:29;;;;;;;35.45;14.23;;;;;;;8.54;100.00;100295.84;4958926;28;20114;-74
2022/12/22 18:38:55;;;;;;;27.08;13.27;;;;;;;8.59;100.00;100296.41;4957925;29;20047;-76
2022/12/22 18:41:22;;;;;;;35.28;14.68;;;;;;;8.61;100.00;100297.13;4957966;29;20023;-78
2022/12/22 18:43:48;;;;;;;38.55;14.90;;;;;;;8.63;100.00;100290.13;4957942;29;20431;-74
2022/12/22 18:46:14;;;;;;;37.65;14.38;;;;;;;8.63;100.00;100285.81;4957923;29;20047;-87
2022/12/22 18:48:39;;;;;;;38.33;13.82;;;;;;;8.65;100.00;100285.72;4958284;29;20058;-88
2022/12/22 18:51:06;;;;;;;37.45;14.63;;;;;;;8.65;100.00;100280.56;4957959;29;20029;-86
2022/12/22 18:53:32;;;;;;;39.00;15.57;;;;;;;8.55;100.00;100261.47;4957854;29;20035;-93
2022/12/22 18:55:58;;;;;;;41.15;15.27;;;;;;;8.68;100.00;100274.41;4957979;29;20028;-83
2022/12/22 18:58:27;;;;;;;43.25;15.60;;;;;;;8.70;100.00;100273.38;4957865;28;20042;-92
2022/12/22 19:00:54;;;;;;;32.58;15.07;;;;;;;8.72;100.00;100273.28;4958006;28;20106;-91
2022/12/22 19:03:22;;;;;;;43.72;15.95;;;;;;;8.72;100.00;100275.84;4958183;29;20471;-91
2022/12/22 19:05:48;;;;;;;39.65;14.45;;;;;;;8.60;100.00;100254.31;4958258;29;20463;-91
2022/12/22 19:08:16;;;;;;;46.08;14.70;;;;;;;8.75;100.00;100280.81;4960112;29;20035;-88
2022/12/22 19:10:47;;;;;;;53.45;16.15;;;;;;;8.77;100.00;100282.38;4941640;29;20062;-87
2022/12/22 19:13:18;;;;;;;;;;;;;;;8.77;100.00;100273.84;4959399;29;20442;-90
2022/12/22 19:15:44;;;;;;;44.90;14.77;;;;;;;8.78;100.00;100273.72;5080743;23;19923;-89
2022/12/22 19:18:16;;;;;;;47.28;13.93;;;;;;;8.71;100.00;100253.63;4941181;29;20442;-87
2022/12/22 19:20:41;;;;;;;46.90;15.30;;;;;;;8.74;100.00;100268.84;4939060;29;20487;-92
2022/12/22 19:23:08;;;;;;;44.08;15.30;;;;;;;8.77;100.00;100273.84;4938165;29;20028;-84
2022/12/22 19:25:33;;;;;;;44.80;15.13;;;;;;;8.80;100.00;100273.63;4938780;29;20028;-90
2022/12/22 19:28:12;;;;;;;37.72;14.65;;;;;;;8.80;100.00;100271.03;4938070;29;20027;-81
2022/12/22 19:30:38;;;;;;;43.22;13.13;;;;;;;8.85;100.00;100271.59;4938612;29;20027;-86
2022/12/22 19:33:04;;;;;;;32.17;12.35;;;;;;;8.87;100.00;100277.47;4938049;29;20028;-88
2022/12/22 19:35:31;;;;;;;40.13;12.85;;;;;;;8.81;100.00;100278.66;4938456;29;20035;-89